sensor_id;sensor_type;location;lat;lon;timestamp;P1;durP1;ratioP1;P2;durP2;ratioP2
40691;SDS011;26377;53.344;14.886;2022-12-18T00:01:56;55.63;;;24.00;;
40691;SDS011;26377;53.344;14.886;2022-12-18T00:04:25;51.00;;;20.30;;
40691;SDS011;26377;53.344;14.886;2022-12-18T00:06:54;55.58;;;21.87;;
40691;SDS011;26377;53.344;14.886;2022-12-18T00:09:21;50.80;;;21.50;;
40691;SDS011;26377;53.344;14.886;2022-12-18T00:11:48;49.95;;;21.60;;
40691;SDS011;26377;53.344;14.886;2022-12-18T00:14:15;46.80;;;20.97;;
40691;SDS011;26377;53.344;14.886;2022-12-18T00:16:44;50.60;;;19.80;;
40691;SDS011;26377;53.344;14.886;2022-12-18T00:19:13;43.60;;;19.75;;
40691;SDS011;26377;53.344;14.886;2022-12-18T00:21:42;45.12;;;18.65;;
40691;SDS011;26377;53.344;14.886;2022-12-18T00:24:10;39.85;;;18.12;;
40691;SDS011;26377;53.344;14.886;2022-12-18T00:26:38;41.92;;;18.30;;
40691;SDS011;26377;53.344;14.886;2022-12-18T00:29:07;42.43;;;17.98;;
40691;SDS011;26377;53.344;14.886;2022-12-18T00:31:37;41.30;;;17.00;;
40691;SDS011;26377;53.344;14.886;2022-12-18T00:34:04;35.58;;;17.17;;
40691;SDS011;26377;53.344;14.886;2022-12-18T00:36:32;38.35;;;19.05;;
40691;SDS011;26377;53.344;14.886;2022-12-18T00:39:01;41.28;;;17.55;;
40691;SDS011;26377;53.344;14.886;2022-12-18T00:41:30;43.87;;;17.92;;
40691;SDS011;26377;53.344;14.886;2022-12-18T00:44:16;44.20;;;21.27;;
40691;SDS011;26377;53.344;14.886;2022-12-18T00:46:44;42.80;;;17.00;;
40691;SDS011;26377;53.344;14.886;2022-12-18T00:49:14;41.30;;;18.30;;
40691;SDS011;26377;53.344;14.886;2022-12-18T00:51:44;39.15;;;17.15;;
40691;SDS011;26377;53.344;14.886;2022-12-18T00:54:11;41.42;;;17.60;;
40691;SDS011;26377;53.344;14.886;2022-12-18T00:56:38;39.08;;;16.97;;
40691;SDS011;26377;53.344;14.886;2022-12-18T00:59:06;35.17;;;15.58;;
40691;SDS011;26377;53.344;14.886;2022-12-18T01:01:32;41.60;;;18.35;;
40691;SDS011;26377;53.344;14.886;2022-12-18T01:04:01;36.93;;;17.35;;
40691;SDS011;26377;53.344;14.886;2022-12-18T01:06:29;37.50;;;16.97;;
40691;SDS011;26377;53.344;14.886;2022-12-18T01:08:56;42.33;;;18.02;;
40691;SDS011;26377;53.344;14.886;2022-12-18T01:11:24;38.48;;;16.93;;
40691;SDS011;26377;53.344;14.886;2022-12-18T01:13:52;42.00;;;17.57;;
40691;SDS011;26377;53.344;14.886;2022-12-18T01:16:22;43.20;;;17.95;;
40691;SDS011;26377;53.344;14.886;2022-12-18T01:18:52;45.95;;;19.82;;
40691;SDS011;26377;53.344;14.886;2022-12-18T01:21:20;43.40;;;17.67;;
40691;SDS011;26377;53.344;14.886;2022-12-18T01:23:56;40.38;;;17.82;;
40691;SDS011;26377;53.344;14.886;2022-12-18T01:26:23;43.10;;;17.82;;
40691;SDS011;26377;53.344;14.886;2022-12-18T01:28:51;43.95;;;17.17;;
40691;SDS011;26377;53.344;14.886;2022-12-18T01:31:24;40.05;;;17.05;;
40691;SDS011;26377;53.344;14.886;2022-12-18T01:33:57;37.30;;;16.75;;
40691;SDS011;26377;53.344;14.886;2022-12-18T01:36:30;38.63;;;17.95;;
40691;SDS011;26377;53.344;14.886;2022-12-18T01:39:00;37.33;;;17.45;;
40691;SDS011;26377;53.344;14.886;2022-12-18T01:41:31;34.50;;;16.42;;
40691;SDS011;26377;53.344;14.886;2022-12-18T01:50:15;32.98;;;15.55;;
40691;SDS011;26377;53.344;14.886;2022-12-18T01:52:58;35.00;;;16.48;;
40691;SDS011;26377;53.344;14.886;2022-12-18T01:55:35;36.65;;;16.85;;
40691;SDS011;26377;53.344;14.886;2022-12-18T01:58:15;39.08;;;16.40;;
40691;SDS011;26377;53.344;14.886;2022-12-18T02:00:43;41.25;;;18.05;;
40691;SDS011;26377;53.344;14.886;2022-12-18T02:03:10;34.92;;;16.07;;
40691;SDS011;26377;53.344;14.886;2022-12-18T02:05:43;40.63;;;17.40;;
40691;SDS011;26377;53.344;14.886;2022-12-18T02:11:48;39.30;;;17.42;;
40691;SDS011;26377;53.344;14.886;2022-12-18T02:17:12;40.55;;;17.45;;
40691;SDS011;26377;53.344;14.886;2022-12-18T02:22:50;37.83;;;16.62;;
40691;SDS011;26377;53.344;14.886;2022-12-18T02:28:22;42.20;;;17.90;;
40691;SDS011;26377;53.344;14.886;2022-12-18T02:30:54;35.05;;;16.05;;
40691;SDS011;26377;53.344;14.886;2022-12-18T02:33:27;34.27;;;15.90;;
40691;SDS011;26377;53.344;14.886;2022-12-18T02:35:57;36.05;;;15.80;;
40691;SDS011;26377;53.344;14.886;2022-12-18T02:38:26;37.88;;;17.57;;
40691;SDS011;26377;53.344;14.886;2022-12-18T02:40:56;43.30;;;15.60;;
40691;SDS011;26377;53.344;14.886;2022-12-18T02:43:24;37.83;;;15.83;;
40691;SDS011;26377;53.344;14.886;2022-12-18T02:45:56;31.87;;;14.83;;
40691;SDS011;26377;53.344;14.886;2022-12-18T02:48:27;38.40;;;16.17;;
40691;SDS011;26377;53.344;14.886;2022-12-18T02:51:08;32.08;;;15.38;;
40691;SDS011;26377;53.344;14.886;2022-12-18T02:53:40;32.15;;;14.70;;
40691;SDS011;26377;53.344;14.886;2022-12-18T02:56:19;30.08;;;13.78;;
40691;SDS011;26377;53.344;14.886;2022-12-18T03:04:38;32.98;;;14.55;;
40691;SDS011;26377;53.344;14.886;2022-12-18T03:07:07;35.78;;;16.00;;
40691;SDS011;26377;53.344;14.886;2022-12-18T03:09:39;33.15;;;15.85;;
40691;SDS011;26377;53.344;14.886;2022-12-18T03:15:02;30.32;;;13.68;;
40691;SDS011;26377;53.344;14.886;2022-12-18T03:17:29;35.50;;;15.18;;
40691;SDS011;26377;53.344;14.886;2022-12-18T03:20:00;35.00;;;14.93;;
40691;SDS011;26377;53.344;14.886;2022-12-18T03:22:32;35.65;;;15.13;;
40691;SDS011;26377;53.344;14.886;2022-12-18T03:25:03;33.78;;;15.78;;
40691;SDS011;26377;53.344;14.886;2022-12-18T03:27:35;37.60;;;16.90;;
40691;SDS011;26377;53.344;14.886;2022-12-18T03:30:11;37.45;;;16.17;;
40691;SDS011;26377;53.344;14.886;2022-12-18T03:32:44;35.10;;;16.00;;
40691;SDS011;26377;53.344;14.886;2022-12-18T03:35:27;37.40;;;16.12;;
40691;SDS011;26377;53.344;14.886;2022-12-18T03:37:57;38.33;;;17.30;;
40691;SDS011;26377;53.344;14.886;2022-12-18T03:40:29;40.95;;;17.32;;
40691;SDS011;26377;53.344;14.886;2022-12-18T03:46:15;34.73;;;16.50;;
40691;SDS011;26377;53.344;14.886;2022-12-18T03:48:45;47.38;;;18.65;;
40691;SDS011;26377;53.344;14.886;2022-12-18T03:51:30;38.35;;;16.37;;
40691;SDS011;26377;53.344;14.886;2022-12-18T03:54:00;40.23;;;18.02;;
40691;SDS011;26377;53.344;14.886;2022-12-18T03:56:39;39.58;;;18.12;;
40691;SDS011;26377;53.344;14.886;2022-12-18T03:59:05;45.35;;;18.77;;
40691;SDS011;26377;53.344;14.886;2022-12-18T04:01:35;45.70;;;19.70;;
40691;SDS011;26377;53.344;14.886;2022-12-18T04:04:10;45.38;;;17.98;;
40691;SDS011;26377;53.344;14.886;2022-12-18T04:06:40;45.20;;;18.50;;
40691;SDS011;26377;53.344;14.886;2022-12-18T04:09:10;41.53;;;18.73;;
40691;SDS011;26377;53.344;14.886;2022-12-18T04:11:39;45.33;;;18.98;;
40691;SDS011;26377;53.344;14.886;2022-12-18T04:14:10;41.98;;;18.80;;
40691;SDS011;26377;53.344;14.886;2022-12-18T04:16:38;44.55;;;18.80;;
40691;SDS011;26377;53.344;14.886;2022-12-18T04:19:06;40.60;;;17.10;;
40691;SDS011;26377;53.344;14.886;2022-12-18T04:21:34;50.05;;;19.90;;
40691;SDS011;26377;53.344;14.886;2022-12-18T04:24:01;47.15;;;20.97;;
40691;SDS011;26377;53.344;14.886;2022-12-18T04:26:28;45.67;;;20.77;;
40691;SDS011;26377;53.344;14.886;2022-12-18T04:29:00;41.83;;;19.23;;
40691;SDS011;26377;53.344;14.886;2022-12-18T04:31:28;51.98;;;21.57;;
40691;SDS011;26377;53.344;14.886;2022-12-18T04:33:55;41.35;;;19.57;;
40691;SDS011;26377;53.344;14.886;2022-12-18T04:36:22;49.03;;;20.72;;
40691;SDS011;26377;53.344;14.886;2022-12-18T04:38:52;46.23;;;20.02;;
40691;SDS011;26377;53.344;14.886;2022-12-18T04:41:20;49.85;;;21.68;;
40691;SDS011;26377;53.344;14.886;2022-12-18T04:43:47;45.33;;;19.37;;
40691;SDS011;26377;53.344;14.886;2022-12-18T04:46:15;40.03;;;17.95;;
40691;SDS011;26377;53.344;14.886;2022-12-18T04:48:42;42.25;;;19.07;;
40691;SDS011;26377;53.344;14.886;2022-12-18T04:51:11;37.75;;;17.05;;
40691;SDS011;26377;53.344;14.886;2022-12-18T04:53:38;41.45;;;17.17;;
40691;SDS011;26377;53.344;14.886;2022-12-18T04:56:06;40.28;;;18.17;;
40691;SDS011;26377;53.344;14.886;2022-12-18T04:58:37;36.88;;;17.48;;
40691;SDS011;26377;53.344;14.886;2022-12-18T05:01:06;38.33;;;17.98;;
40691;SDS011;26377;53.344;14.886;2022-12-18T05:03:35;35.80;;;17.52;;
40691;SDS011;26377;53.344;14.886;2022-12-18T05:06:03;36.25;;;16.20;;
40691;SDS011;26377;53.344;14.886;2022-12-18T05:08:32;36.85;;;17.42;;
40691;SDS011;26377;53.344;14.886;2022-12-18T05:13:32;33.92;;;15.85;;
40691;SDS011;26377;53.344;14.886;2022-12-18T05:16:00;35.17;;;16.17;;
40691;SDS011;26377;53.344;14.886;2022-12-18T05:18:28;36.33;;;17.17;;
40691;SDS011;26377;53.344;14.886;2022-12-18T05:20:55;34.27;;;17.32;;
40691;SDS011;26377;53.344;14.886;2022-12-18T05:23:23;33.53;;;15.05;;
40691;SDS011;26377;53.344;14.886;2022-12-18T05:25:54;31.57;;;14.68;;
40691;SDS011;26377;53.344;14.886;2022-12-18T05:28:25;30.08;;;15.23;;
40691;SDS011;26377;53.344;14.886;2022-12-18T05:30:57;33.28;;;16.05;;
40691;SDS011;26377;53.344;14.886;2022-12-18T05:33:28;29.98;;;15.20;;
40691;SDS011;26377;53.344;14.886;2022-12-18T05:35:58;30.92;;;15.63;;
40691;SDS011;26377;53.344;14.886;2022-12-18T05:38:27;31.25;;;15.88;;
40691;SDS011;26377;53.344;14.886;2022-12-18T05:40:56;34.13;;;16.30;;
40691;SDS011;26377;53.344;14.886;2022-12-18T05:43:23;34.85;;;16.80;;
40691;SDS011;26377;53.344;14.886;2022-12-18T05:45:52;35.30;;;17.52;;
40691;SDS011;26377;53.344;14.886;2022-12-18T05:48:20;37.73;;;17.00;;
40691;SDS011;26377;53.344;14.886;2022-12-18T05:50:48;32.63;;;15.98;;
40691;SDS011;26377;53.344;14.886;2022-12-18T05:53:17;32.17;;;15.23;;
40691;SDS011;26377;53.344;14.886;2022-12-18T05:55:45;33.33;;;16.05;;
40691;SDS011;26377;53.344;14.886;2022-12-18T05:58:13;35.43;;;16.02;;
40691;SDS011;26377;53.344;14.886;2022-12-18T06:00:41;38.58;;;16.82;;
40691;SDS011;26377;53.344;14.886;2022-12-18T06:03:11;35.45;;;16.62;;
40691;SDS011;26377;53.344;14.886;2022-12-18T06:05:41;36.17;;;17.77;;
40691;SDS011;26377;53.344;14.886;2022-12-18T06:08:10;30.50;;;13.83;;
40691;SDS011;26377;53.344;14.886;2022-12-18T06:10:40;31.87;;;14.53;;
40691;SDS011;26377;53.344;14.886;2022-12-18T06:13:07;29.27;;;14.58;;
40691;SDS011;26377;53.344;14.886;2022-12-18T06:15:36;33.08;;;15.93;;
40691;SDS011;26377;53.344;14.886;2022-12-18T06:18:04;34.27;;;16.67;;
40691;SDS011;26377;53.344;14.886;2022-12-18T06:20:31;30.15;;;14.75;;
40691;SDS011;26377;53.344;14.886;2022-12-18T06:22:59;29.87;;;14.83;;
40691;SDS011;26377;53.344;14.886;2022-12-18T06:25:27;31.40;;;15.05;;
40691;SDS011;26377;53.344;14.886;2022-12-18T06:27:54;33.33;;;16.77;;
40691;SDS011;26377;53.344;14.886;2022-12-18T06:30:21;32.05;;;15.88;;
40691;SDS011;26377;53.344;14.886;2022-12-18T06:32:49;31.37;;;14.83;;
40691;SDS011;26377;53.344;14.886;2022-12-18T06:35:17;30.68;;;14.40;;
40691;SDS011;26377;53.344;14.886;2022-12-18T06:37:45;35.83;;;15.10;;
40691;SDS011;26377;53.344;14.886;2022-12-18T06:40:11;37.20;;;17.48;;
40691;SDS011;26377;53.344;14.886;2022-12-18T06:42:38;33.90;;;16.17;;
40691;SDS011;26377;53.344;14.886;2022-12-18T06:45:07;31.17;;;15.28;;
40691;SDS011;26377;53.344;14.886;2022-12-18T06:47:35;33.85;;;16.00;;
40691;SDS011;26377;53.344;14.886;2022-12-18T06:50:02;31.82;;;15.25;;
40691;SDS011;26377;53.344;14.886;2022-12-18T06:52:31;34.33;;;15.40;;
40691;SDS011;26377;53.344;14.886;2022-12-18T06:54:59;33.35;;;16.25;;
40691;SDS011;26377;53.344;14.886;2022-12-18T06:57:27;35.60;;;16.87;;
40691;SDS011;26377;53.344;14.886;2022-12-18T06:59:54;32.58;;;16.62;;
40691;SDS011;26377;53.344;14.886;2022-12-18T07:02:21;41.50;;;18.05;;
40691;SDS011;26377;53.344;14.886;2022-12-18T07:04:48;43.05;;;18.65;;
40691;SDS011;26377;53.344;14.886;2022-12-18T07:07:15;40.38;;;18.45;;
40691;SDS011;26377;53.344;14.886;2022-12-18T07:09:42;39.27;;;17.05;;
40691;SDS011;26377;53.344;14.886;2022-12-18T07:12:09;34.83;;;16.02;;
40691;SDS011;26377;53.344;14.886;2022-12-18T07:14:36;37.55;;;16.42;;
40691;SDS011;26377;53.344;14.886;2022-12-18T07:17:03;37.65;;;18.00;;
40691;SDS011;26377;53.344;14.886;2022-12-18T07:19:30;31.95;;;15.55;;
40691;SDS011;26377;53.344;14.886;2022-12-18T07:21:58;31.20;;;15.80;;
40691;SDS011;26377;53.344;14.886;2022-12-18T07:24:25;31.70;;;16.52;;
40691;SDS011;26377;53.344;14.886;2022-12-18T07:26:52;34.03;;;16.37;;
40691;SDS011;26377;53.344;14.886;2022-12-18T07:29:19;33.58;;;15.93;;
40691;SDS011;26377;53.344;14.886;2022-12-18T07:31:46;43.95;;;19.57;;
40691;SDS011;26377;53.344;14.886;2022-12-18T07:34:14;40.43;;;17.45;;
40691;SDS011;26377;53.344;14.886;2022-12-18T07:36:41;41.25;;;18.32;;
40691;SDS011;26377;53.344;14.886;2022-12-18T07:39:10;45.03;;;18.32;;
40691;SDS011;26377;53.344;14.886;2022-12-18T07:41:38;33.92;;;15.25;;
40691;SDS011;26377;53.344;14.886;2022-12-18T07:44:11;35.43;;;17.52;;
40691;SDS011;26377;53.344;14.886;2022-12-18T07:46:39;32.55;;;14.98;;
40691;SDS011;26377;53.344;14.886;2022-12-18T07:49:07;33.18;;;15.38;;
40691;SDS011;26377;53.344;14.886;2022-12-18T07:51:33;29.07;;;14.13;;
40691;SDS011;26377;53.344;14.886;2022-12-18T07:54:00;33.95;;;15.28;;
40691;SDS011;26377;53.344;14.886;2022-12-18T07:56:28;28.67;;;13.43;;
40691;SDS011;26377;53.344;14.886;2022-12-18T07:58:55;32.35;;;15.40;;
40691;SDS011;26377;53.344;14.886;2022-12-18T08:01:23;29.67;;;14.40;;
40691;SDS011;26377;53.344;14.886;2022-12-18T08:03:50;31.50;;;14.85;;
40691;SDS011;26377;53.344;14.886;2022-12-18T08:06:18;30.15;;;15.10;;
40691;SDS011;26377;53.344;14.886;2022-12-18T08:08:45;32.08;;;14.83;;
40691;SDS011;26377;53.344;14.886;2022-12-18T08:11:13;32.73;;;14.68;;
40691;SDS011;26377;53.344;14.886;2022-12-18T08:13:40;27.58;;;13.83;;
40691;SDS011;26377;53.344;14.886;2022-12-18T08:16:08;29.70;;;14.43;;
40691;SDS011;26377;53.344;14.886;2022-12-18T08:18:36;32.60;;;16.97;;
40691;SDS011;26377;53.344;14.886;2022-12-18T08:21:08;34.55;;;15.13;;
40691;SDS011;26377;53.344;14.886;2022-12-18T08:23:41;37.03;;;17.23;;
40691;SDS011;26377;53.344;14.886;2022-12-18T08:26:09;37.80;;;17.27;;
40691;SDS011;26377;53.344;14.886;2022-12-18T08:28:38;33.18;;;15.55;;
40691;SDS011;26377;53.344;14.886;2022-12-18T08:31:06;37.98;;;17.27;;
40691;SDS011;26377;53.344;14.886;2022-12-18T08:33:34;41.68;;;18.37;;
40691;SDS011;26377;53.344;14.886;2022-12-18T08:36:03;36.38;;;17.25;;
40691;SDS011;26377;53.344;14.886;2022-12-18T08:38:32;28.23;;;15.43;;
40691;SDS011;26377;53.344;14.886;2022-12-18T08:41:00;37.45;;;17.55;;
40691;SDS011;26377;53.344;14.886;2022-12-18T08:43:32;36.65;;;17.42;;
40691;SDS011;26377;53.344;14.886;2022-12-18T08:46:19;37.35;;;18.77;;
40691;SDS011;26377;53.344;14.886;2022-12-18T08:48:48;32.45;;;17.00;;
40691;SDS011;26377;53.344;14.886;2022-12-18T08:51:17;33.05;;;16.87;;
40691;SDS011;26377;53.344;14.886;2022-12-18T08:53:45;33.13;;;17.20;;
40691;SDS011;26377;53.344;14.886;2022-12-18T08:56:14;38.65;;;19.40;;
40691;SDS011;26377;53.344;14.886;2022-12-18T08:58:41;34.38;;;18.42;;
40691;SDS011;26377;53.344;14.886;2022-12-18T09:01:09;34.00;;;17.30;;
40691;SDS011;26377;53.344;14.886;2022-12-18T09:03:38;35.40;;;18.52;;
40691;SDS011;26377;53.344;14.886;2022-12-18T09:06:06;38.75;;;18.35;;
40691;SDS011;26377;53.344;14.886;2022-12-18T09:08:35;32.80;;;16.95;;
40691;SDS011;26377;53.344;14.886;2022-12-18T09:11:09;37.83;;;18.15;;
40691;SDS011;26377;53.344;14.886;2022-12-18T09:13:46;39.00;;;18.70;;
40691;SDS011;26377;53.344;14.886;2022-12-18T09:16:13;41.60;;;20.30;;
40691;SDS011;26377;53.344;14.886;2022-12-18T09:18:40;37.03;;;17.80;;
40691;SDS011;26377;53.344;14.886;2022-12-18T09:21:18;41.58;;;20.37;;
40691;SDS011;26377;53.344;14.886;2022-12-18T09:23:44;39.65;;;19.20;;
40691;SDS011;26377;53.344;14.886;2022-12-18T09:26:16;41.68;;;21.20;;
40691;SDS011;26377;53.344;14.886;2022-12-18T09:28:43;39.63;;;21.10;;
40691;SDS011;26377;53.344;14.886;2022-12-18T09:31:12;45.15;;;22.62;;
40691;SDS011;26377;53.344;14.886;2022-12-18T09:33:40;44.10;;;21.85;;
40691;SDS011;26377;53.344;14.886;2022-12-18T09:36:09;41.42;;;20.70;;
40691;SDS011;26377;53.344;14.886;2022-12-18T09:38:40;44.23;;;21.87;;
40691;SDS011;26377;53.344;14.886;2022-12-18T09:49:38;40.45;;;20.50;;
40691;SDS011;26377;53.344;14.886;2022-12-18T09:52:27;40.20;;;20.72;;
40691;SDS011;26377;53.344;14.886;2022-12-18T09:57:55;39.03;;;19.25;;
40691;SDS011;26377;53.344;14.886;2022-12-18T10:00:33;40.35;;;20.65;;
40691;SDS011;26377;53.344;14.886;2022-12-18T10:03:12;39.18;;;20.50;;
40691;SDS011;26377;53.344;14.886;2022-12-18T10:20:15;39.73;;;19.87;;
40691;SDS011;26377;53.344;14.886;2022-12-18T10:27:58;40.43;;;20.77;;
40691;SDS011;26377;53.344;14.886;2022-12-18T10:30:36;39.23;;;19.05;;
40691;SDS011;26377;53.344;14.886;2022-12-18T10:33:08;36.70;;;18.23;;
40691;SDS011;26377;53.344;14.886;2022-12-18T10:35:41;37.63;;;17.70;;
40691;SDS011;26377;53.344;14.886;2022-12-18T10:43:27;35.15;;;17.62;;
40691;SDS011;26377;53.344;14.886;2022-12-18T10:48:33;39.90;;;19.35;;
40691;SDS011;26377;53.344;14.886;2022-12-18T10:51:07;37.10;;;19.12;;
40691;SDS011;26377;53.344;14.886;2022-12-18T10:53:35;39.45;;;18.98;;
40691;SDS011;26377;53.344;14.886;2022-12-18T10:56:04;38.15;;;18.98;;
40691;SDS011;26377;53.344;14.886;2022-12-18T10:58:36;36.00;;;19.23;;
40691;SDS011;26377;53.344;14.886;2022-12-18T11:01:06;40.98;;;20.68;;
40691;SDS011;26377;53.344;14.886;2022-12-18T11:03:43;36.30;;;19.15;;
40691;SDS011;26377;53.344;14.886;2022-12-18T11:06:23;35.98;;;18.82;;
40691;SDS011;26377;53.344;14.886;2022-12-18T11:11:48;36.23;;;18.02;;
40691;SDS011;26377;53.344;14.886;2022-12-18T11:14:21;35.38;;;19.02;;
40691;SDS011;26377;53.344;14.886;2022-12-18T11:17:19;36.98;;;19.02;;
40691;SDS011;26377;53.344;14.886;2022-12-18T11:19:54;33.92;;;17.82;;
40691;SDS011;26377;53.344;14.886;2022-12-18T11:22:27;38.20;;;19.77;;
40691;SDS011;26377;53.344;14.886;2022-12-18T11:27:48;34.95;;;19.12;;
40691;SDS011;26377;53.344;14.886;2022-12-18T11:30:23;39.18;;;20.10;;
40691;SDS011;26377;53.344;14.886;2022-12-18T11:32:56;37.08;;;19.23;;
40691;SDS011;26377;53.344;14.886;2022-12-18T11:38:26;40.20;;;20.77;;
40691;SDS011;26377;53.344;14.886;2022-12-18T11:40:57;34.73;;;18.25;;
40691;SDS011;26377;53.344;14.886;2022-12-18T11:43:29;35.50;;;18.37;;
40691;SDS011;26377;53.344;14.886;2022-12-18T11:46:10;33.98;;;18.60;;
40691;SDS011;26377;53.344;14.886;2022-12-18T11:48:44;34.43;;;18.70;;
40691;SDS011;26377;53.344;14.886;2022-12-18T11:51:41;33.45;;;19.10;;
40691;SDS011;26377;53.344;14.886;2022-12-18T11:54:15;30.97;;;16.82;;
40691;SDS011;26377;53.344;14.886;2022-12-18T11:56:53;27.80;;;16.12;;
40691;SDS011;26377;53.344;14.886;2022-12-18T12:04:46;32.53;;;16.97;;
40691;SDS011;26377;53.344;14.886;2022-12-18T12:10:40;30.62;;;16.93;;
40691;SDS011;26377;53.344;14.886;2022-12-18T12:16:34;26.60;;;14.38;;
40691;SDS011;26377;53.344;14.886;2022-12-18T12:21:53;31.10;;;16.05;;
40691;SDS011;26377;53.344;14.886;2022-12-18T12:27:17;27.87;;;15.38;;
40691;SDS011;26377;53.344;14.886;2022-12-18T12:32:58;29.92;;;15.13;;
40691;SDS011;26377;53.344;14.886;2022-12-18T12:38:28;30.43;;;16.55;;
40691;SDS011;26377;53.344;14.886;2022-12-18T12:41:05;31.82;;;15.28;;
40691;SDS011;26377;53.344;14.886;2022-12-18T12:43:42;29.42;;;16.20;;
40691;SDS011;26377;53.344;14.886;2022-12-18T12:46:13;28.60;;;15.88;;
40691;SDS011;26377;53.344;14.886;2022-12-18T12:48:46;29.05;;;16.93;;
40691;SDS011;26377;53.344;14.886;2022-12-18T12:51:26;26.12;;;15.08;;
40691;SDS011;26377;53.344;14.886;2022-12-18T12:54:08;32.00;;;16.62;;
40691;SDS011;26377;53.344;14.886;2022-12-18T12:56:46;26.10;;;14.65;;
40691;SDS011;26377;53.344;14.886;2022-12-18T13:02:30;27.15;;;14.75;;
40691;SDS011;26377;53.344;14.886;2022-12-18T13:08:07;27.70;;;15.13;;
40691;SDS011;26377;53.344;14.886;2022-12-18T13:10:41;29.77;;;15.95;;
40691;SDS011;26377;53.344;14.886;2022-12-18T13:13:09;33.58;;;16.85;;
40691;SDS011;26377;53.344;14.886;2022-12-18T13:15:47;28.47;;;15.83;;
40691;SDS011;26377;53.344;14.886;2022-12-18T13:23:27;36.50;;;16.97;;
40691;SDS011;26377;53.344;14.886;2022-12-18T13:34:16;35.35;;;16.95;;
40691;SDS011;26377;53.344;14.886;2022-12-18T13:36:51;35.25;;;16.07;;
40691;SDS011;26377;53.344;14.886;2022-12-18T13:44:35;34.55;;;17.80;;
40691;SDS011;26377;53.344;14.886;2022-12-18T13:47:24;40.23;;;19.40;;
40691;SDS011;26377;53.344;14.886;2022-12-18T13:50:00;33.00;;;16.67;;
40691;SDS011;26377;53.344;14.886;2022-12-18T13:52:38;36.42;;;16.97;;
40691;SDS011;26377;53.344;14.886;2022-12-18T13:55:07;34.67;;;18.55;;
40691;SDS011;26377;53.344;14.886;2022-12-18T13:57:38;30.82;;;16.15;;
40691;SDS011;26377;53.344;14.886;2022-12-18T14:02:54;29.30;;;15.60;;
40691;SDS011;26377;53.344;14.886;2022-12-18T14:05:28;31.77;;;16.10;;
40691;SDS011;26377;53.344;14.886;2022-12-18T14:07:55;32.80;;;16.82;;
40691;SDS011;26377;53.344;14.886;2022-12-18T14:10:34;28.20;;;14.90;;
40691;SDS011;26377;53.344;14.886;2022-12-18T14:13:08;31.23;;;15.72;;
40691;SDS011;26377;53.344;14.886;2022-12-18T14:15:41;32.03;;;16.20;;
40691;SDS011;26377;53.344;14.886;2022-12-18T14:21:06;29.42;;;15.05;;
40691;SDS011;26377;53.344;14.886;2022-12-18T14:23:40;30.27;;;16.15;;
40691;SDS011;26377;53.344;14.886;2022-12-18T14:26:21;30.30;;;16.23;;
40691;SDS011;26377;53.344;14.886;2022-12-18T14:28:53;26.93;;;15.03;;
40691;SDS011;26377;53.344;14.886;2022-12-18T14:31:28;27.32;;;14.78;;
40691;SDS011;26377;53.344;14.886;2022-12-18T14:33:57;28.80;;;15.33;;
40691;SDS011;26377;53.344;14.886;2022-12-18T14:36:26;29.90;;;15.63;;
40691;SDS011;26377;53.344;14.886;2022-12-18T14:38:58;27.80;;;15.00;;
40691;SDS011;26377;53.344;14.886;2022-12-18T14:41:26;23.40;;;13.18;;
40691;SDS011;26377;53.344;14.886;2022-12-18T14:43:56;28.95;;;14.53;;
40691;SDS011;26377;53.344;14.886;2022-12-18T14:52:02;31.80;;;14.80;;
40691;SDS011;26377;53.344;14.886;2022-12-18T14:54:32;35.90;;;18.73;;
40691;SDS011;26377;53.344;14.886;2022-12-18T15:02:16;30.77;;;15.90;;
40691;SDS011;26377;53.344;14.886;2022-12-18T15:05:03;33.55;;;17.27;;
40691;SDS011;26377;53.344;14.886;2022-12-18T15:07:42;34.48;;;16.65;;
40691;SDS011;26377;53.344;14.886;2022-12-18T15:18:15;41.08;;;19.45;;
40691;SDS011;26377;53.344;14.886;2022-12-18T15:20:49;43.60;;;22.20;;
40691;SDS011;26377;53.344;14.886;2022-12-18T15:23:21;42.55;;;19.87;;
40691;SDS011;26377;53.344;14.886;2022-12-18T15:26:03;37.75;;;19.30;;
40691;SDS011;26377;53.344;14.886;2022-12-18T15:36:25;37.85;;;18.60;;
40691;SDS011;26377;53.344;14.886;2022-12-18T15:38:56;38.65;;;19.00;;
40691;SDS011;26377;53.344;14.886;2022-12-18T15:41:24;45.00;;;20.95;;
40691;SDS011;26377;53.344;14.886;2022-12-18T15:43:52;42.67;;;20.68;;
40691;SDS011;26377;53.344;14.886;2022-12-18T15:46:20;46.48;;;22.20;;
40691;SDS011;26377;53.344;14.886;2022-12-18T15:48:56;38.17;;;19.23;;
40691;SDS011;26377;53.344;14.886;2022-12-18T15:51:26;37.20;;;19.27;;
40691;SDS011;26377;53.344;14.886;2022-12-18T15:54:02;41.53;;;21.35;;
40691;SDS011;26377;53.344;14.886;2022-12-18T15:56:32;41.75;;;20.48;;
40691;SDS011;26377;53.344;14.886;2022-12-18T15:59:18;35.75;;;18.48;;
40691;SDS011;26377;53.344;14.886;2022-12-18T16:01:48;34.27;;;16.77;;
40691;SDS011;26377;53.344;14.886;2022-12-18T16:06:47;34.58;;;17.57;;
40691;SDS011;26377;53.344;14.886;2022-12-18T16:09:15;35.23;;;16.95;;
40691;SDS011;26377;53.344;14.886;2022-12-18T16:11:42;35.83;;;17.40;;
40691;SDS011;26377;53.344;14.886;2022-12-18T16:14:16;34.67;;;17.60;;
40691;SDS011;26377;53.344;14.886;2022-12-18T16:16:55;39.03;;;19.25;;
40691;SDS011;26377;53.344;14.886;2022-12-18T16:19:26;39.08;;;20.20;;
40691;SDS011;26377;53.344;14.886;2022-12-18T16:21:55;39.27;;;19.52;;
40691;SDS011;26377;53.344;14.886;2022-12-18T16:24:25;42.80;;;17.52;;
40691;SDS011;26377;53.344;14.886;2022-12-18T16:26:56;40.45;;;17.92;;
40691;SDS011;26377;53.344;14.886;2022-12-18T16:29:25;44.70;;;22.10;;
40691;SDS011;26377;53.344;14.886;2022-12-18T16:31:54;46.55;;;22.22;;
40691;SDS011;26377;53.344;14.886;2022-12-18T16:34:25;39.58;;;21.25;;
40691;SDS011;26377;53.344;14.886;2022-12-18T16:36:56;34.18;;;17.00;;
40691;SDS011;26377;53.344;14.886;2022-12-18T16:39:26;38.02;;;17.87;;
40691;SDS011;26377;53.344;14.886;2022-12-18T16:41:55;35.90;;;17.65;;
40691;SDS011;26377;53.344;14.886;2022-12-18T16:44:23;35.23;;;17.17;;
40691;SDS011;26377;53.344;14.886;2022-12-18T16:46:50;37.03;;;17.95;;
40691;SDS011;26377;53.344;14.886;2022-12-18T16:49:17;36.42;;;18.75;;
40691;SDS011;26377;53.344;14.886;2022-12-18T16:51:45;37.83;;;17.65;;
40691;SDS011;26377;53.344;14.886;2022-12-18T16:54:13;38.98;;;18.85;;
40691;SDS011;26377;53.344;14.886;2022-12-18T16:56:41;39.50;;;20.15;;
40691;SDS011;26377;53.344;14.886;2022-12-18T16:59:09;35.83;;;18.65;;
40691;SDS011;26377;53.344;14.886;2022-12-18T17:01:38;37.00;;;18.90;;
40691;SDS011;26377;53.344;14.886;2022-12-18T17:04:07;40.48;;;20.80;;
40691;SDS011;26377;53.344;14.886;2022-12-18T17:06:35;39.03;;;20.60;;
40691;SDS011;26377;53.344;14.886;2022-12-18T17:09:12;36.75;;;18.42;;
40691;SDS011;26377;53.344;14.886;2022-12-18T17:11:42;42.03;;;19.45;;
40691;SDS011;26377;53.344;14.886;2022-12-18T17:14:12;36.77;;;18.98;;